Airfield :
LOGIN :

Register | Disclaimer

   EN    FR    IT 

 










Legend :    VFR   Marginal VFR   IFR   Intensive IFR   Very Intensive IFR
Visi :
Ceiling :
>= 8 km
>= 3000ft
5 to 8 km
1000 to 3000 ft
1500m to 5 km
500 to 1000 ft
800 to 1500m
200 to 500 ft
< 800m
< 200 ft
Symbols :   Thunderstorms  Fog  Heavy snow  Heavy precipitations  Wind > 20 kt
SIGMETs :     Misc.  Thunderstorms  Icing  Turbulence  Mountain Waves  Volcanic Ashes







- Airport Elevation : 219 ft
- IATA code : DNR
- Download approach charts


LFRD - Dinard

CURRENT METAR :
  • 180730Z AUTO 17006KT 2100 BR OVC002 08/07 Q1017 BECMG 9999 NSW BKN020

EXPIRED METARs :
  • 180700Z AUTO 16005KT 3900 BR BKN002 BKN043 BKN200 08/08 Q1017 BECMG 9999 NSW BKN020
  • 180630Z AUTO 15006KT 4600 BR BKN003 BKN190 08/08 Q1016 BECMG 9999 NSW BKN005
  • 180600Z AUTO 14007KT 1700 R35L/1400U BR BKN001 OVC054 08/08 Q1016 BECMG 9999 NSW BKN005
  • 180530Z AUTO VRB02KT 0750 R35L/0800U FG VV/// 08/08 Q1016 BECMG 9999 NSW BKN005
  • 180500Z AUTO 20004KT 0750 R35L/0900U FG VV/// 08/08 Q1017 BECMG 9999 NSW BKN005

TAF TAF LFRD
Valid from the 18 at 06:00 until the 19 at 06:00 UTC


180500Z 1806/1906 18005KT 0700 FG VV///
BECMG 1807/1809 9999 NSW BKN005
BECMG 1809/1811 BKN020
TEMPO 1812/1819 5000 RA BKN010
ATIS : +33 2 99 16 81 50
No reported NOTAMs for that airfield.



MET'MAP, your aeronautical weather chart ! - Copyright ORBIFLY December 2007 - Disclaimer

ORBIFLY MET'MAP TEAM :

Programming & Development : Alexandra Zaïnal
Concept & Development : Baudouin d'Aumeries
Co-Development & Prog : Marc-Olivier Méhu
Technical & hardware support : Manuel Goepfert

Contact : metmap@orbifly.com




SOURCES & CREDITS :

   NOAA